Bartow, Florida
Current Conditions -  °F | °C
As of 12:55 AM on Monday 20 Oct 2014 (Local Time) from KBOW Reporting Station
Clear Clear  
Wind Chill: 18°   Ceiling: Unl
Heat Index: 18°   Visibility: 10mi
Dew Point: 18°   Wind: 5mph
Humidity: 100%   Direction: 40°NE
Pressure: 30.06"   Gusts: NA
Location:  27.9°N, 81.84°W
Report Text: KBOW 200455Z AUTO 04004KT 10SM CLR 18/18 A3006 RMK AO2
Loading
Personal Weather Stations






























Interactive Weather Map New forecast layout! Learn more

10-Day Weather Forecast

Advertisements
Track Severe Weather on mobile